AirNav   Pilot Hours Calculator
 
 1415 users online  

OL10 Waters Boone Airport
Hydro, Oklahoma, USA

GOING TO HYDRO?


FAA INFORMATION EFFECTIVE 01 DECEMBER 2022

Location

FAA Identifier: OL10
Lat/Long: 35-39-11.0000N 098-36-21.0000W
35-39.183333N 098-36.350000W
35.6530556,-98.6058333
(estimated)
Elevation: 1676 ft. / 511 m (estimated)
From city: 6 miles NW of HYDRO, OK
Time zone: UTC -6 (UTC -5 during Daylight Saving Time)
Zip code: 73048

Airport Operations

Airport use: Private use. Permission required prior to landing
Activation date: 02/2020
Control tower: no
ARTCC: FORT WORTH CENTER
FSS: MC ALESTER FLIGHT SERVICE STATION
Attendance: 
Segmented circle: no

Airport Communications

WX AWOS-3PT at OJA (7 nm SW): 118.575 (580-772-7020)
WX AWOS-3 at JWG (16 nm NE): 134.175 (580-623-7388)
WX AWOS-3 at CLK (17 nm SW): 119.225 (580-323-8477)

Nearby radio navigation aids

VOR radial/distance  VOR name  Freq  Var
BFVr045/38.5BURNS FLAT VORTAC110.0005E

Airport Services

Runway Information

Runway 18/36

Dimensions: 975 x 60 ft. / 297 x 18 m
Surface: turf/gravel, in fair condition
RUNWAY 18  RUNWAY 36
Traffic pattern: leftleft

Airport Ownership and Management from official FAA records

Ownership: Privately-owned
Owner: ROD WATERS
93978 NORTH 2465 ROAD
HYDRO, OK 73048
Phone 580-774-8250
Manager: ROD WATERS
93978 NORTH 2465 ROAD
HYDRO, OK 73048
Phone 580-774-8250

Airport Operational Statistics

Aircraft based on the field: 1
Single engine airplanes: 1
    

Instrument Procedures

There are no published instrument procedures at OL10.

Some nearby airports with instrument procedures:

KOJA - Weatherford Stafford Airport (7 nm SW)
1O4 - Thomas Municipal Airport (8 nm NW)
2O8 - Hinton Municipal Airport (16 nm SE)
KJWG - Watonga Regional Airport (16 nm NE)
KCLK - Clinton Regional Airport (17 nm SW)
 
Loc | Ops | Rwys | IFR | FBO | Links
Com | Nav | Svcs | Stats | Notes

AirBoss

 
Aerial photo
No photo
 
Airport distance calculator
Flying to Waters Boone Airport? Find the distance to fly.

From to OL10

Sunrise and sunset
Times for 02-Dec-2022
 Local
(UTC-6)
 Zulu
(UTC)
Morning civil twilight07:0013:00
Sunrise07:2813:28
Sunset17:2023:20
Evening civil twilight17:4823:48

Current date and time
Zulu (UTC)  02-Dec-2022 16:33:02
Local (UTC-6)  02-Dec-2022 10:33:02
 
METAR
KOJA 
7nm SW 
021615Z AUTO 20018G26KT 10SM OVC010 13/11 A2990 RMK AO2 T01320105
KJWG 
16nm NE 
021615Z AUTO 21017G28KT 10SM CLR 14/10 A2989 RMK AO2 T01360102
KCLK 
18nm SW 
021615Z AUTO 20022G30KT 10SM CLR 12/10 A2991 RMK AO2
TAF
KCSM 
34nm SW 
021120Z 0212/0312 19018KT P6SM SCT015 FM021600 21020G32KT P6SM SCT250 FM022300 22015KT P6SM SCT250 FM030400 34020G35KT P6SM SCT120 BKN250 WS020/36055KT FM031100 03015G24KT P6SM SCT250
NOTAMs
Click for the latest NOTAMs
NOTAMs are issued by the DoD/FAA and will open in a separate window not controlled by AirNav.

 

 
 

Would you like to see your business listed on this page?

 If your business provides an interesting product or service to pilots, flight crews, aircraft, or users of the Waters Boone Airport, you should consider listing it here.  To start the listing process, click on the button below
 
Add a business
 

Other Pages about Waters Boone Airport

Update a link
 
Copyright © AirNav, LLC. All rights reserved. Privacy Policy  Contact